Aventureiro — CUGF5 — position and weather

sailwx.info

Track history (hours):
 
Tides and Currents Weather Stations Pressure Air Temp Water Temp Dewpoint Dewpoint Depression Visibility Wind Speed Wind Dir Waves Ship Positions

Aventureiro

Last reported at 2017-Nov-02 15:58 UTC. Time now 2017-Nov-19 19:50 UTC.
Position N 39°23' W 009°26'.
Warning: this ship's position is 17 days out of date.

Length 19 m.

Type: Fishing. MMSI: 263407750.

Date/timePositionNaut miles runAvg speedWind from/ knotsBaromVisibWave heightAir tempDewpointWater temp
2017-Nov-02 15:58N 39°23' W 009°26'  
2017-Oct-30 19:43N 39°21' W 009°22'2 7.3
2017-Oct-30 19:30N 39°21' W 009°24'4 7.8
2017-Oct-30 18:57N 39°25' W 009°28'0 0.6
2017-Oct-30 18:08N 39°25' W 009°28'0 2.1
2017-Oct-30 17:58N 39°25' W 009°28'2 3.7
2017-Oct-30 17:30N 39°25' W 009°30'3 3.4
2017-Oct-30 16:41N 39°22' W 009°33'2 7.8
2017-Oct-30 16:29N 39°22' W 009°35'4 7.7
2017-Oct-30 15:59N 39°21' W 009°39'2 4.2
2017-Oct-30 15:30N 39°23' W 009°41'4 6.7
2017-Oct-30 14:58N 39°22' W 009°36'4 8.5
2017-Oct-30 14:30N 39°21' W 009°31'  
2017-Oct-26 17:17N 39°24' W 009°27'3 8.9
2017-Oct-26 17:00N 39°22' W 009°25'6 0.1
2017-Oct-24 19:25N 39°16' W 009°25'0 0.2
2017-Oct-24 18:54N 39°16' W 009°25'1 2.2
2017-Oct-24 18:29N 39°16' W 009°26'2 4.6
2017-Oct-24 18:01N 39°13' W 009°27'2 3.6
2017-Oct-24 17:31N 39°13' W 009°25'0 0.1
2017-Oct-24 17:01N 39°13' W 009°25'0 0.1
2017-Oct-24 16:30N 39°13' W 009°25'0 0.0
2017-Oct-24 16:00N 39°13' W 009°25'2 3.5
2017-Oct-24 15:30N 39°11' W 009°25'1 2.9
2017-Oct-24 15:01N 39°10' W 009°23'2 3.2
2017-Oct-24 14:30N 39°11' W 009°24'3 5.0
2017-Oct-24 14:00N 39°09' W 009°23'4 6.3
2017-Oct-24 13:24N 39°13' W 009°23'8 0.5
2017-Oct-23 20:50N 39°21' W 009°22'3 8.3
2017-Oct-23 20:30N 39°18' W 009°24'4 8.0
2017-Oct-23 20:00N 39°15' W 009°26'1 2.6
2017-Oct-23 19:29N 39°13' W 009°26'0 0.2
2017-Oct-23 19:00N 39°13' W 009°26'0 0.3
2017-Oct-23 18:30N 39°13' W 009°26'3 6.1
2017-Oct-23 18:00N 39°12' W 009°22'3 6.0
2017-Oct-23 17:30N 39°09' W 009°23'0 0.9
2017-Oct-23 17:00N 39°10' W 009°24'0 0.4
2017-Oct-23 16:30N 39°10' W 009°23'2 4.0
2017-Oct-23 16:00N 39°12' W 009°23'  
Track history (hours):
 
Tides and Currents Weather Stations Pressure Air Temp Water Temp Dewpoint Dewpoint Depression Visibility Wind Speed Wind Dir Waves Ship Positions

Aventureiro

Last reported at 2017-Nov-02 15:58 UTC. Time now 2017-Nov-19 19:50 UTC.
Position N 39°23' W 009°26'.
Warning: this ship's position is 17 days out of date.

Length 19 m.

Type: Fishing. MMSI: 263407750.

Date/timePositionNaut miles runAvg speedWind from/ knotsBaromVisibWave heightAir tempDewpointWater temp
2017-Nov-02 15:58N 39°23' W 009°26'  
2017-Oct-30 19:43N 39°21' W 009°22'2 7.3
2017-Oct-30 19:30N 39°21' W 009°24'4 7.8
2017-Oct-30 18:57N 39°25' W 009°28'0 0.6
2017-Oct-30 18:08N 39°25' W 009°28'0 2.1
2017-Oct-30 17:58N 39°25' W 009°28'2 3.7
2017-Oct-30 17:30N 39°25' W 009°30'3 3.4
2017-Oct-30 16:41N 39°22' W 009°33'2 7.8
2017-Oct-30 16:29N 39°22' W 009°35'4 7.7
2017-Oct-30 15:59N 39°21' W 009°39'2 4.2
2017-Oct-30 15:30N 39°23' W 009°41'4 6.7
2017-Oct-30 14:58N 39°22' W 009°36'4 8.5
2017-Oct-30 14:30N 39°21' W 009°31'  
2017-Oct-26 17:17N 39°24' W 009°27'3 8.9
2017-Oct-26 17:00N 39°22' W 009°25'6 0.1
2017-Oct-24 19:25N 39°16' W 009°25'0 0.2
2017-Oct-24 18:54N 39°16' W 009°25'1 2.2
2017-Oct-24 18:29N 39°16' W 009°26'2 4.6
2017-Oct-24 18:01N 39°13' W 009°27'2 3.6
2017-Oct-24 17:31N 39°13' W 009°25'0 0.1
2017-Oct-24 17:01N 39°13' W 009°25'0 0.1
2017-Oct-24 16:30N 39°13' W 009°25'0 0.0
2017-Oct-24 16:00N 39°13' W 009°25'2 3.5
2017-Oct-24 15:30N 39°11' W 009°25'1 2.9
2017-Oct-24 15:01N 39°10' W 009°23'2 3.2
2017-Oct-24 14:30N 39°11' W 009°24'3 5.0
2017-Oct-24 14:00N 39°09' W 009°23'4 6.3
2017-Oct-24 13:24N 39°13' W 009°23'8 0.5
2017-Oct-23 20:50N 39°21' W 009°22'3 8.3
2017-Oct-23 20:30N 39°18' W 009°24'4 8.0
2017-Oct-23 20:00N 39°15' W 009°26'1 2.6
2017-Oct-23 19:29N 39°13' W 009°26'0 0.2
2017-Oct-23 19:00N 39°13' W 009°26'0 0.3
2017-Oct-23 18:30N 39°13' W 009°26'3 6.1
2017-Oct-23 18:00N 39°12' W 009°22'3 6.0
2017-Oct-23 17:30N 39°09' W 009°23'0 0.9
2017-Oct-23 17:00N 39°10' W 009°24'0 0.4
2017-Oct-23 16:30N 39°10' W 009°23'2 4.0
2017-Oct-23 16:00N 39°12' W 009°23'  

Dump ship's entire track history